Time;durP1;ratioP1;P1;durP2;ratioP2;P2;SDS_P1;SDS_P2;PMS_P1;PMS_P2;Temp;Humidity;BMP_temperature;BMP_pressure;BME280_temperature;BME280_humidity;BME280_pressure;Samples;Min_cycle;Max_cycle;Signal;HPM_P1;HPM_P2
2021/04/20 00:01:07;;;;;;;4.03;1.60;;;30.10;91.60;;;;;;4991114;28;20303;-52
2021/04/20 00:03:38;;;;;;;2.38;1.55;;;30.10;91.60;;;;;;4990763;28;20236;-52
2021/04/20 00:06:08;;;;;;;2.40;1.45;;;30.10;91.70;;;;;;4991325;28;20227;-51
2021/04/20 00:08:38;;;;;;;2.42;1.60;;;30.20;91.80;;;;;;4991063;28;20696;-51
2021/04/20 00:11:10;;;;;;;2.10;1.63;;;30.20;91.90;;;;;;4991284;28;20887;-50
2021/04/20 00:13:41;;;;;;;2.05;1.73;;;30.30;92.00;;;;;;4990106;28;20206;-50
2021/04/20 00:16:12;;;;;;;2.38;1.60;;;30.30;92.10;;;;;;4990324;28;20554;-51
2021/04/20 00:18:42;;;;;;;2.50;1.90;;;30.30;92.10;;;;;;4990740;28;20292;-49
2021/04/20 00:21:13;;;;;;;2.97;1.70;;;30.40;92.20;;;;;;4991162;28;20629;-52
2021/04/20 00:23:44;;;;;;;2.92;2.20;;;30.40;92.30;;;;;;4984260;28;20208;-53
2021/04/20 00:26:14;;;;;;;2.83;1.65;;;30.50;92.40;;;;;;4977605;28;20209;-54
2021/04/20 00:28:46;;;;;;;3.05;1.80;;;30.50;92.50;;;;;;4978792;28;20220;-48
2021/04/20 00:31:16;;;;;;;2.95;1.95;;;30.50;92.60;;;;;;4982616;28;20243;-52
2021/04/20 00:33:47;;;;;;;2.55;2.03;;;30.60;92.60;;;;;;4989045;28;20192;-50
2021/04/20 00:36:18;;;;;;;3.33;2.10;;;30.70;92.60;;;;;;4988261;28;20618;-52
2021/04/20 00:38:48;;;;;;;3.13;1.90;;;30.70;92.70;;;;;;4987101;28;20204;-52
2021/04/20 00:41:19;;;;;;;2.15;1.48;;;30.80;92.80;;;;;;4984897;28;20681;-53
2021/04/20 00:43:50;;;;;;;1.73;1.45;;;30.90;92.80;;;;;;4980189;28;20205;-50
2021/04/20 00:46:25;;;;;;;2.00;1.50;;;30.90;92.90;;;;;;4987813;28;20202;-52
2021/04/20 00:48:55;;;;;;;3.33;1.80;;;31.00;92.90;;;;;;4986978;28;20274;-50
2021/04/20 00:51:25;;;;;;;2.72;1.50;;;31.10;93.40;;;;;;4984215;28;20235;-48
2021/04/20 00:53:56;;;;;;;3.30;1.80;;;31.10;93.00;;;;;;4980212;28;20645;-49
2021/04/20 00:56:26;;;;;;;3.50;2.45;;;31.20;93.10;;;;;;4990309;28;20299;-50
2021/04/20 00:58:58;;;;;;;2.03;1.55;;;31.30;93.10;;;;;;4990131;28;20192;-49
2021/04/20 01:01:29;;;;;;;1.98;1.55;;;31.40;93.00;;;;;;4989743;28;20228;-48
2021/04/20 01:03:59;;;;;;;2.53;1.70;;;31.40;92.90;;;;;;4990202;28;20227;-52
2021/04/20 01:06:29;;;;;;;1.88;1.30;;;31.50;92.90;;;;;;4948650;29;20304;-50
2021/04/20 01:09:00;;;;;;;3.10;1.50;;;31.50;92.70;;;;;;4948804;29;20336;-52
2021/04/20 01:11:30;;;;;;;1.95;1.23;;;31.60;92.70;;;;;;4947583;29;20366;-51
2021/04/20 01:14:03;;;;;;;1.30;1.08;;;31.60;92.70;;;;;;4948446;29;20698;-53
2021/04/20 01:16:34;;;;;;;2.28;1.27;;;31.70;92.60;;;;;;4948507;29;20300;-50
2021/04/20 01:19:04;;;;;;;2.45;1.20;;;31.80;92.50;;;;;;4891596;29;20298;-51
2021/04/20 01:21:35;;;;;;;2.45;1.23;;;31.90;92.50;;;;;;4890568;29;20220;-51
2021/04/20 01:24:17;;;;;;;2.28;1.30;;;31.90;92.50;;;;;;4891436;29;20211;-49
2021/04/20 01:26:47;;;;;;;3.10;1.30;;;31.90;92.40;;;;;;4891542;29;20283;-53
2021/04/20 01:29:18;;;;;;;2.55;1.30;;;32.00;92.40;;;;;;4891379;29;20254;-51
2021/04/20 01:31:48;;;;;;;1.52;1.13;;;32.00;92.30;;;;;;4936468;29;20206;-55
2021/04/20 01:34:18;;;;;;;1.60;1.10;;;32.10;92.30;;;;;;4936583;28;20202;-53
2021/04/20 01:36:50;;;;;;;1.73;1.20;;;32.10;92.20;;;;;;4953787;28;20667;-53
2021/04/20 01:39:22;;;;;;;1.50;1.15;;;32.10;92.10;;;;;;4948166;29;20717;-54
2021/04/20 01:41:52;;;;;;;2.47;1.42;;;32.20;92.10;;;;;;4945015;29;20301;-53
2021/04/20 01:44:23;;;;;;;2.47;1.27;;;32.20;92.00;;;;;;4947432;29;20224;-51
2021/04/20 01:46:54;;;;;;;2.58;1.35;;;32.30;92.00;;;;;;4853983;29;20257;-51
2021/04/20 01:49:25;;;;;;;2.33;1.33;;;32.30;91.90;;;;;;4862292;29;20259;-54
2021/04/20 01:51:56;;;;;;;2.65;1.50;;;32.40;91.90;;;;;;4890539;29;20253;-52
2021/04/20 01:54:27;;;;;;;1.80;1.70;;;32.40;91.70;;;;;;4890900;29;20704;-51
2021/04/20 01:56:58;;;;;;;1.70;1.20;;;32.50;91.30;;;;;;4888790;29;20746;-51
2021/04/20 01:59:30;;;;;;;1.38;1.27;;;32.50;90.90;;;;;;4891696;29;20203;-51
2021/04/20 02:02:00;;;;;;;1.80;1.30;;;32.50;90.50;;;;;;4891100;29;20305;-52
2021/04/20 02:04:31;;;;;;;2.25;1.17;;;32.60;89.70;;;;;;4892020;29;20656;-55
2021/04/20 02:07:04;;;;;;;1.42;1.25;;;32.50;89.10;;;;;;4892088;29;20265;-53
2021/04/20 02:09:36;;;;;;;1.90;1.20;;;32.60;90.10;;;;;;4892688;29;20232;-52
2021/04/20 02:12:07;;;;;;;2.33;1.23;;;32.60;89.90;;;;;;4891831;29;20775;-49
2021/04/20 02:14:37;;;;;;;2.47;1.20;;;32.70;89.10;;;;;;4892214;29;20203;-51
2021/04/20 02:17:07;;;;;;;1.60;1.10;;;32.60;88.20;;;;;;4909368;28;20208;-55
2021/04/20 02:19:38;;;;;;;2.58;1.27;;;32.70;88.50;;;;;;4991331;28;20203;-55
2021/04/20 02:22:11;;;;;;;2.28;1.25;;;32.70;88.50;;;;;;4992164;28;20196;-55
2021/04/20 02:24:42;;;;;;;2.40;1.10;;;32.70;87.90;;;;;;4990411;28;20205;-51
2021/04/20 02:27:13;;;;;;;1.67;1.00;;;32.70;87.90;;;;;;4989147;28;20197;-54
2021/04/20 02:29:43;;;;;;;2.47;1.38;;;32.70;87.90;;;;;;4986183;28;20251;-54
2021/04/20 02:32:14;;;;;;;1.98;1.10;;;32.70;87.80;;;;;;4990363;28;20211;-53
2021/04/20 02:34:44;;;;;;;1.67;1.02;;;32.70;88.70;;;;;;4991279;28;20558;-50
2021/04/20 02:37:17;;;;;;;1.40;0.85;;;32.70;88.20;;;;;;4991847;28;20687;-52
2021/04/20 02:39:50;;;;;;;1.90;1.20;;;32.70;88.40;;;;;;4989698;28;20204;-49
2021/04/20 02:42:20;;;;;;;2.08;1.00;;;32.80;88.50;;;;;;4991387;28;20208;-49
2021/04/20 02:44:51;;;;;;;1.60;1.27;;;32.80;88.50;;;;;;4991542;28;20215;-49
2021/04/20 02:47:22;;;;;;;1.60;1.00;;;32.90;89.00;;;;;;4991947;28;20295;-49
2021/04/20 02:49:55;;;;;;;2.45;1.20;;;32.90;88.70;;;;;;4991678;28;20221;-50
2021/04/20 02:52:27;;;;;;;2.75;1.15;;;32.90;88.10;;;;;;4979378;28;20305;-55
2021/04/20 02:55:05;;;;;;;2.30;1.20;;;33.00;88.30;;;;;;4992089;28;20212;-52
2021/04/20 02:57:43;;;;;;;1.75;1.42;;;33.00;88.70;;;;;;4991610;28;20656;-55
2021/04/20 03:00:16;;;;;;;5.32;4.07;;;33.10;88.30;;;;;;4991290;28;20208;-49
2021/04/20 03:02:47;;;;;;;3.65;3.20;;;33.00;86.20;;;;;;4990910;28;20247;-53
2021/04/20 03:05:18;;;;;;;3.88;3.38;;;33.00;86.70;;;;;;4991751;28;20636;-54
2021/04/20 03:07:49;;;;;;;2.40;2.20;;;33.10;87.00;;;;;;4991856;28;20211;-54
2021/04/20 03:10:21;;;;;;;2.45;1.65;;;33.00;87.40;;;;;;4990319;28;20224;-49
2021/04/20 03:12:52;;;;;;;2.00;1.25;;;33.00;86.10;;;;;;4990659;28;20726;-53
2021/04/20 03:15:26;;;;;;;2.30;1.17;;;33.00;85.80;;;;;;4982240;28;20211;-51
2021/04/20 03:17:59;;;;;;;2.58;1.50;;;33.10;86.20;;;;;;4991429;28;20208;-50
2021/04/20 03:20:33;;;;;;;3.22;1.40;;;33.10;86.20;;;;;;4989322;28;20236;-48
2021/04/20 03:23:04;;;;;;;2.03;1.20;;;33.10;85.10;;;;;;4891483;29;20255;-50
2021/04/20 03:25:36;;;;;;;2.47;1.15;;;33.10;84.00;;;;;;4891057;29;20274;-49
2021/04/20 03:28:06;;;;;;;7.40;4.07;;;33.10;83.30;;;;;;4891766;29;20203;-47
2021/04/20 03:30:37;;;;;;;4.70;3.47;;;33.00;83.50;;;;;;4891722;29;20223;-51
2021/04/20 03:33:14;;;;;;;4.45;2.70;;;33.00;84.30;;;;;;4892197;29;20279;-51
2021/04/20 03:35:51;;;;;;;2.75;2.40;;;33.10;84.80;;;;;;4891554;29;20211;-52
2021/04/20 03:38:35;;;;;;;2.45;1.60;;;33.10;84.70;;;;;;4834986;29;20236;-51
2021/04/20 03:41:13;;;;;;;2.25;0.95;;;33.10;83.70;;;;;;4835186;29;20225;-50
2021/04/20 03:43:44;;;;;;;2.58;0.95;;;33.20;83.20;;;;;;4835684;29;20570;-50
2021/04/20 03:46:23;;;;;;;3.28;1.23;;;33.20;83.70;;;;;;4835150;29;20714;-52
2021/04/20 03:48:58;;;;;;;1.83;1.30;;;33.20;84.10;;;;;;4836511;29;20737;-50
2021/04/20 03:51:29;;;;;;;1.92;1.17;;;33.20;83.80;;;;;;4815676;29;20218;-54
2021/04/20 03:54:07;;;;;;;2.42;1.40;;;33.20;84.10;;;;;;4859969;29;20230;-50
2021/04/20 03:56:39;;;;;;;1.95;1.13;;;33.30;83.90;;;;;;4909694;29;20297;-50
2021/04/20 03:59:09;;;;;;;2.78;1.13;;;33.30;85.10;;;;;;4910172;29;20214;-49
2021/04/20 04:01:42;;;;;;;1.55;0.80;;;33.30;84.70;;;;;;4889767;29;20647;-49
2021/04/20 04:04:14;;;;;;;1.90;0.90;;;33.40;83.90;;;;;;4946491;29;20728;-53
2021/04/20 04:06:44;;;;;;;1.38;0.88;;;33.40;83.30;;;;;;4938484;29;20657;-53
2021/04/20 04:09:14;;;;;;;3.20;1.15;;;33.40;82.60;;;;;;4947051;29;20233;-51
2021/04/20 04:11:48;;;;;;;2.15;0.90;;;33.40;82.80;;;;;;4946367;29;20245;-50
2021/04/20 04:14:19;;;;;;;1.98;1.00;;;33.50;82.10;;;;;;4946267;29;20644;-49
2021/04/20 04:16:49;;;;;;;1.05;0.90;;;33.50;82.00;;;;;;4947056;29;20217;-51
2021/04/20 04:19:26;;;;;;;1.10;0.95;;;33.60;81.50;;;;;;4946884;29;20212;-51
2021/04/20 04:21:57;;;;;;;2.28;1.10;;;33.60;81.20;;;;;;4951464;28;20208;-51
2021/04/20 04:24:37;;;;;;;1.50;0.90;;;33.70;81.80;;;;;;4963077;28;20205;-53
2021/04/20 04:27:12;;;;;;;1.35;0.90;;;33.70;80.70;;;;;;4941760;29;20205;-52
2021/04/20 04:29:43;;;;;;;2.97;1.35;;;33.80;80.30;;;;;;4890935;29;20242;-49
2021/04/20 04:32:14;;;;;;;1.70;0.65;;;33.80;79.80;;;;;;4889127;29;20216;-49
2021/04/20 04:34:44;;;;;;;0.70;0.65;;;33.80;79.80;;;;;;4886973;29;20223;-49
2021/04/20 04:37:15;;;;;;;1.50;0.70;;;33.80;79.70;;;;;;4889917;29;20220;-49
2021/04/20 04:39:46;;;;;;;1.20;0.80;;;33.90;80.00;;;;;;4889349;29;20327;-52
2021/04/20 04:42:18;;;;;;;2.03;0.88;;;33.90;78.50;;;;;;4889392;29;20747;-51
2021/04/20 04:44:49;;;;;;;3.80;1.58;;;33.90;77.70;;;;;;4851613;29;20566;-53
2021/04/20 04:47:19;;;;;;;1.48;0.80;;;33.90;78.20;;;;;;4852854;29;20217;-51
2021/04/20 04:49:50;;;;;;;4.18;2.63;;;34.00;79.30;;;;;;4852395;29;20236;-48
2021/04/20 04:52:20;;;;;;;1.48;0.90;;;34.00;78.80;;;;;;4815194;29;20823;-48
2021/04/20 04:54:51;;;;;;;1.92;0.95;;;34.10;78.00;;;;;;4760704;30;20216;-51
2021/04/20 04:57:23;;;;;;;1.23;0.60;;;34.20;78.90;;;;;;4774410;29;20608;-48
2021/04/20 04:59:56;;;;;;;1.30;1.10;;;34.20;77.30;;;;;;4824385;29;20223;-51
2021/04/20 05:02:27;;;;;;;1.10;0.90;;;34.20;77.80;;;;;;4863897;29;20284;-51
2021/04/20 05:05:04;;;;;;;2.70;1.17;;;34.30;76.70;;;;;;4815239;29;20216;-52
2021/04/20 05:07:34;;;;;;;0.90;0.73;;;34.30;76.10;;;;;;4815589;29;21032;-48
2021/04/20 05:10:06;;;;;;;1.20;0.80;;;34.30;76.60;;;;;;4814994;29;20714;-51
2021/04/20 05:12:38;;;;;;;4.32;3.92;;;34.30;76.80;;;;;;4815369;29;20883;-50
2021/04/20 05:15:12;;;;;;;3.88;3.25;;;34.30;76.70;;;;;;4819241;29;20320;-48
2021/04/20 05:17:43;;;;;;;4.18;3.00;;;34.30;76.50;;;;;;4833715;29;20219;-52
2021/04/20 05:20:20;;;;;;;2.47;2.22;;;34.30;76.10;;;;;;4833763;29;20217;-51
2021/04/20 05:22:50;;;;;;;1.40;1.30;;;34.30;76.00;;;;;;4849042;29;20266;-51
2021/04/20 05:25:21;;;;;;;0.90;0.80;;;34.40;76.50;;;;;;4905072;29;20304;-55
2021/04/20 05:27:53;;;;;;;1.02;0.77;;;34.30;76.00;;;;;;4945627;29;20210;-50
2021/04/20 05:30:26;;;;;;;0.60;0.60;;;34.50;75.80;;;;;;4946367;29;20267;-55
2021/04/20 05:32:56;;;;;;;1.48;0.75;;;34.40;75.20;;;;;;4946297;29;20214;-49
2021/04/20 05:35:26;;;;;;;0.73;0.60;;;34.50;75.60;;;;;;4916119;29;20297;-52
2021/04/20 05:37:57;;;;;;;1.55;0.60;;;34.60;76.10;;;;;;4947060;29;20259;-50
2021/04/20 05:40:28;;;;;;;3.22;0.73;;;34.60;76.30;;;;;;4947924;29;20233;-48
2021/04/20 05:43:00;;;;;;;0.80;0.60;;;34.80;75.70;;;;;;4947779;29;20221;-48
2021/04/20 05:45:30;;;;;;;0.60;0.60;;;34.80;74.40;;;;;;4947666;29;20202;-50
2021/04/20 05:48:01;;;;;;;2.15;0.60;;;34.90;74.40;;;;;;4946889;29;20232;-51
2021/04/20 05:50:32;;;;;;;0.82;0.80;;;35.00;74.60;;;;;;4947236;29;20328;-48
2021/04/20 05:53:02;;;;;;;1.10;0.60;;;35.10;73.80;;;;;;4947509;29;20276;-50
2021/04/20 05:55:33;;;;;;;1.17;0.60;;;35.10;74.30;;;;;;4947241;29;20216;-50
2021/04/20 05:58:05;;;;;;;0.70;0.70;;;35.20;74.20;;;;;;4947017;29;20692;-51
2021/04/20 06:00:36;;;;;;;0.90;0.63;;;35.20;72.60;;;;;;4976747;28;20232;-49
2021/04/20 06:03:07;;;;;;;1.02;0.45;;;35.20;74.10;;;;;;4986263;28;20279;-48
2021/04/20 06:05:37;;;;;;;0.75;0.63;;;35.20;72.40;;;;;;4987830;28;20196;-50
2021/04/20 06:08:08;;;;;;;1.45;0.70;;;35.30;72.80;;;;;;4988647;28;20271;-50
2021/04/20 06:10:38;;;;;;;1.83;0.80;;;35.30;72.20;;;;;;4987935;28;20207;-49
2021/04/20 06:13:09;;;;;;;1.02;0.65;;;35.40;71.70;;;;;;4947938;29;20255;-48
2021/04/20 06:15:40;;;;;;;1.08;0.70;;;35.40;70.80;;;;;;4912245;29;20907;-49
2021/04/20 06:18:10;;;;;;;0.80;0.60;;;35.50;72.10;;;;;;4912516;29;20203;-48
2021/04/20 06:20:40;;;;;;;0.77;0.70;;;35.50;72.50;;;;;;4912911;29;20206;-48
2021/04/20 06:23:11;;;;;;;2.13;0.80;;;35.50;71.10;;;;;;4912599;29;20222;-49
2021/04/20 06:25:41;;;;;;;2.72;0.77;;;35.60;71.20;;;;;;4839767;29;20213;-51
2021/04/20 06:28:14;;;;;;;1.25;0.80;;;35.70;71.10;;;;;;4836711;29;20217;-49
2021/04/20 06:30:44;;;;;;;1.35;0.75;;;35.70;70.70;;;;;;4839995;29;20251;-49
2021/04/20 06:33:15;;;;;;;0.98;0.90;;;35.70;70.10;;;;;;4840315;29;20221;-53
2021/04/20 06:35:45;;;;;;;1.67;0.60;;;35.90;70.60;;;;;;4839976;29;20217;-51
2021/04/20 06:38:16;;;;;;;1.92;0.88;;;36.00;70.40;;;;;;4880918;29;20257;-48
2021/04/20 06:40:47;;;;;;;1.48;0.63;;;36.00;69.70;;;;;;4923542;29;20535;-49
2021/04/20 06:43:24;;;;;;;0.90;0.70;;;36.00;69.80;;;;;;4933706;29;20884;-49
2021/04/20 06:45:56;;;;;;;1.90;1.00;;;36.10;69.10;;;;;;4889382;29;20690;-51
2021/04/20 06:48:35;;;;;;;1.52;0.80;;;36.10;68.80;;;;;;4883077;29;20863;-48
2021/04/20 06:51:10;;;;;;;1.50;0.60;;;36.10;68.70;;;;;;4912495;29;20219;-49
2021/04/20 06:53:42;;;;;;;1.60;0.75;;;36.20;68.90;;;;;;4916108;29;20283;-48
2021/04/20 06:56:24;;;;;;;0.60;0.50;;;36.20;67.70;;;;;;4931374;28;20201;-48
2021/04/20 06:58:58;;;;;;;1.75;0.70;;;36.30;68.70;;;;;;4953894;28;20604;-51
2021/04/20 07:01:34;;;;;;;0.90;0.73;;;36.30;67.80;;;;;;4951656;28;20251;-50
2021/04/20 07:04:15;;;;;;;1.25;0.70;;;36.30;66.60;;;;;;4951538;28;20287;-52
2021/04/20 07:06:52;;;;;;;0.70;0.60;;;36.30;66.70;;;;;;4951864;28;20289;-49
2021/04/20 07:09:24;;;;;;;0.82;0.65;;;36.40;66.20;;;;;;4954092;28;20296;-49
2021/04/20 07:11:55;;;;;;;1.67;0.85;;;36.40;66.50;;;;;;4959272;28;20692;-49
2021/04/20 07:14:33;;;;;;;1.27;0.80;;;36.40;66.20;;;;;;4967141;28;20219;-49
2021/04/20 07:17:28;;;;;;;2.50;0.90;;;36.40;64.80;;;;;;4975566;28;20221;-49
2021/04/20 07:20:33;;;;;;;1.30;0.70;;;36.40;64.80;;;;;;4987730;28;20303;-50
2021/04/20 07:23:32;;;;;;;0.68;0.40;;;36.40;64.20;;;;;;4985353;28;20291;-50
2021/04/20 07:26:24;;;;;;;0.55;0.45;;;36.40;65.00;;;;;;4941982;29;20280;-50
2021/04/20 07:29:08;;;;;;;0.60;0.60;;;36.50;66.00;;;;;;4888627;29;20302;-49
2021/04/20 07:31:50;;;;;;;0.60;0.50;;;36.60;65.90;;;;;;4888828;29;20925;-49
2021/04/20 07:34:25;;;;;;;0.47;0.47;;;36.70;65.30;;;;;;4870886;29;20264;-49
2021/04/20 07:37:13;;;;;;;0.70;0.57;;;36.70;65.90;;;;;;4874076;29;20226;-48
2021/04/20 07:39:48;;;;;;;0.80;0.60;;;36.80;64.80;;;;;;4857424;29;20682;-49
2021/04/20 07:42:23;;;;;;;2.20;0.77;;;36.90;64.60;;;;;;4857877;29;20223;-50
2021/04/20 07:44:58;;;;;;;1.30;0.90;;;37.00;64.20;;;;;;4832961;29;20263;-50
2021/04/20 07:47:33;;;;;;;1.02;0.70;;;37.10;63.60;;;;;;4799454;29;20256;-50
2021/04/20 07:50:06;;;;;;;1.55;0.80;;;37.10;63.50;;;;;;4791511;29;20774;-48
2021/04/20 07:52:37;;;;;;;1.02;0.70;;;37.10;63.70;;;;;;4807546;29;20312;-48
2021/04/20 07:55:10;;;;;;;0.70;0.65;;;37.20;64.30;;;;;;4839362;29;20304;-49
2021/04/20 07:57:41;;;;;;;0.98;0.60;;;37.20;64.70;;;;;;4853722;29;20589;-49
2021/04/20 08:00:15;;;;;;;0.90;0.60;;;37.30;65.50;;;;;;4873960;29;20295;-49
2021/04/20 08:02:53;;;;;;;1.08;0.65;;;37.40;63.50;;;;;;4872533;29;20360;-49
2021/04/20 08:05:26;;;;;;;1.02;0.50;;;37.40;63.20;;;;;;4837415;29;20646;-49
2021/04/20 08:08:01;;;;;;;0.77;0.60;;;37.40;62.50;;;;;;4838256;29;20252;-49
2021/04/20 08:10:35;;;;;;;0.60;0.50;;;37.30;63.70;;;;;;4886340;29;20231;-50
2021/04/20 08:13:09;;;;;;;0.77;0.60;;;37.30;64.10;;;;;;4910000;29;20207;-48
2021/04/20 08:15:41;;;;;;;1.02;0.70;;;37.30;63.30;;;;;;4910547;29;20531;-48
2021/04/20 08:18:16;;;;;;;1.05;0.63;;;37.30;63.40;;;;;;4911597;29;20215;-50
2021/04/20 08:20:47;;;;;;;0.82;0.70;;;37.30;63.80;;;;;;4910958;29;20218;-49
2021/04/20 08:23:17;;;;;;;0.60;0.50;;;37.20;63.10;;;;;;4855137;29;20208;-49
2021/04/20 08:25:52;;;;;;;0.60;0.60;;;37.20;65.20;;;;;;4855126;29;20216;-48
2021/04/20 08:28:26;;;;;;;1.40;0.80;;;37.10;64.40;;;;;;4850632;29;20300;-50
2021/04/20 08:31:01;;;;;;;0.90;0.60;;;37.10;63.80;;;;;;4907022;29;20238;-49
2021/04/20 08:33:35;;;;;;;0.43;0.43;;;37.00;64.10;;;;;;4904239;29;20286;-48
2021/04/20 08:36:10;;;;;;;1.25;0.70;;;36.90;64.60;;;;;;4944344;29;20327;-49
2021/04/20 08:38:50;;;;;;;1.08;0.70;;;37.00;64.70;;;;;;4911594;29;20215;-48
2021/04/20 08:41:30;;;;;;;1.67;0.90;;;36.90;64.20;;;;;;4915313;29;20451;-50
2021/04/20 08:44:20;;;;;;;0.55;0.50;;;36.90;65.00;;;;;;4914285;29;21015;-49
2021/04/20 08:46:54;;;;;;;1.23;0.70;;;36.80;65.70;;;;;;4912338;29;20731;-50
2021/04/20 08:49:47;;;;;;;1.33;0.70;;;36.80;65.90;;;;;;4875770;29;20779;-49
2021/04/20 08:52:26;;;;;;;1.40;0.70;;;36.80;66.10;;;;;;4874966;29;20286;-49
2021/04/20 08:55:16;;;;;;;1.40;0.85;;;36.90;65.20;;;;;;4902595;29;20218;-51
2021/04/20 08:58:24;;;;;;;1.73;0.80;;;36.90;65.20;;;;;;4911077;29;20306;-51
2021/04/20 09:00:59;;;;;;;1.13;0.90;;;36.90;65.60;;;;;;4898989;29;20325;-50
2021/04/20 09:03:33;;;;;;;0.63;0.60;;;37.00;65.30;;;;;;4893129;29;20236;-52
2021/04/20 09:06:06;;;;;;;2.80;0.90;;;37.00;65.10;;;;;;4894233;29;20250;-49
2021/04/20 09:08:37;;;;;;;2.67;0.90;;;36.90;65.10;;;;;;4899075;29;20529;-49
2021/04/20 09:11:10;;;;;;;1.95;0.80;;;37.00;65.30;;;;;;4909279;29;20235;-49
2021/04/20 09:13:55;;;;;;;1.00;0.65;;;36.90;65.10;;;;;;4915879;29;20237;-49
2021/04/20 09:16:30;;;;;;;1.35;0.82;;;37.00;65.20;;;;;;4947365;29;20623;-50
2021/04/20 09:19:01;;;;;;;1.33;0.70;;;36.90;65.20;;;;;;4946602;29;20283;-51
2021/04/20 09:21:38;;;;;;;1.23;0.95;;;36.90;65.10;;;;;;4947530;29;20206;-48
2021/04/20 09:24:12;;;;;;;2.83;1.00;;;36.90;64.90;;;;;;4948096;29;20209;-52
2021/04/20 09:27:04;;;;;;;1.15;0.80;;;36.90;65.00;;;;;;4894386;29;20232;-51
2021/04/20 09:29:36;;;;;;;1.13;0.95;;;36.80;65.10;;;;;;4947167;29;20200;-53
2021/04/20 09:32:08;;;;;;;1.10;0.70;;;36.70;65.50;;;;;;4948115;29;20205;-49
2021/04/20 09:34:40;;;;;;;1.38;0.77;;;36.70;65.70;;;;;;4943010;29;20729;-50
2021/04/20 09:37:11;;;;;;;1.73;0.52;;;36.80;66.00;;;;;;4948023;29;20213;-50
2021/04/20 09:39:43;;;;;;;0.70;0.60;;;36.70;66.40;;;;;;4947488;29;20221;-50
2021/04/20 09:42:13;;;;;;;2.38;0.60;;;36.80;66.90;;;;;;4948266;29;20245;-49
2021/04/20 09:44:52;;;;;;;0.70;0.50;;;36.90;67.00;;;;;;4911546;29;20266;-50
2021/04/20 09:47:45;;;;;;;1.38;0.70;;;36.90;67.00;;;;;;4917263;29;20214;-50
2021/04/20 09:50:29;;;;;;;1.25;0.70;;;37.00;66.70;;;;;;4915770;29;20362;-48
2021/04/20 09:53:12;;;;;;;1.15;0.65;;;37.00;66.40;;;;;;4916310;29;20336;-50
2021/04/20 09:55:43;;;;;;;1.08;0.70;;;37.00;66.30;;;;;;4915981;29;20289;-50
2021/04/20 09:58:14;;;;;;;0.73;0.65;;;37.00;66.30;;;;;;4942554;29;20213;-53
2021/04/20 10:00:44;;;;;;;0.70;0.70;;;37.00;66.40;;;;;;4954621;28;20340;-53
2021/04/20 10:03:29;;;;;;;0.80;0.70;;;36.90;66.50;;;;;;4954372;29;20248;-53
2021/04/20 10:06:12;;;;;;;1.15;0.70;;;36.90;66.60;;;;;;4954086;29;20239;-51
2021/04/20 10:08:52;;;;;;;1.42;0.63;;;36.90;66.70;;;;;;4906182;29;20249;-50
2021/04/20 10:11:26;;;;;;;1.25;0.80;;;36.80;66.70;;;;;;4861496;29;20236;-52
2021/04/20 10:14:12;;;;;;;1.08;0.75;;;36.70;66.70;;;;;;4866579;29;20247;-51
2021/04/20 10:16:45;;;;;;;1.35;0.70;;;36.70;67.30;;;;;;4893156;29;20219;-52
2021/04/20 10:19:23;;;;;;;0.68;0.68;;;36.70;67.20;;;;;;4897267;29;20728;-49
2021/04/20 10:22:03;;;;;;;0.88;0.63;;;36.70;67.50;;;;;;4897163;29;20230;-50
2021/04/20 10:24:34;;;;;;;1.27;0.93;;;36.60;67.30;;;;;;4896906;29;20309;-48
2021/04/20 10:27:08;;;;;;;0.93;0.80;;;36.60;67.50;;;;;;4840837;29;20311;-50
2021/04/20 10:29:42;;;;;;;1.45;0.80;;;36.60;66.90;;;;;;4822691;29;20218;-51
2021/04/20 10:32:21;;;;;;;1.25;0.77;;;36.60;67.10;;;;;;4823148;29;20695;-50
2021/04/20 10:34:51;;;;;;;0.90;0.60;;;36.70;66.90;;;;;;4820477;29;20213;-49
2021/04/20 10:37:41;;;;;;;1.50;0.98;;;36.70;67.20;;;;;;4820013;29;20216;-49
2021/04/20 10:40:15;;;;;;;1.33;0.77;;;36.70;66.90;;;;;;4864274;29;20755;-48
2021/04/20 10:42:47;;;;;;;1.00;0.80;;;36.80;66.50;;;;;;4914347;29;20218;-50
2021/04/20 10:45:18;;;;;;;1.83;0.70;;;36.80;66.10;;;;;;4895634;29;20219;-50
2021/04/20 10:47:50;;;;;;;0.90;0.60;;;36.80;65.90;;;;;;4896668;29;20217;-52
2021/04/20 10:50:23;;;;;;;0.57;0.43;;;36.90;65.80;;;;;;4896844;29;20383;-51
2021/04/20 10:52:55;;;;;;;1.42;0.50;;;36.90;66.20;;;;;;4915414;29;20216;-54
2021/04/20 10:55:30;;;;;;;0.60;0.50;;;37.10;66.60;;;;;;4953895;29;20240;-48
2021/04/20 10:58:02;;;;;;;0.68;0.60;;;37.30;66.90;;;;;;4947415;28;20215;-50
2021/04/20 11:00:33;;;;;;;0.77;0.68;;;37.60;67.00;;;;;;4950497;29;20256;-51
2021/04/20 11:03:03;;;;;;;1.05;0.50;;;37.80;66.00;;;;;;4950448;29;20324;-49
2021/04/20 11:05:34;;;;;;;1.58;0.70;;;38.10;64.70;;;;;;4950697;29;20256;-53
2021/04/20 11:08:05;;;;;;;0.85;0.60;;;38.10;64.00;;;;;;4950626;29;20252;-52
2021/04/20 11:10:39;;;;;;;1.00;0.70;;;38.10;63.30;;;;;;4984479;28;20318;-50
2021/04/20 11:13:11;;;;;;;0.80;0.60;;;38.00;63.20;;;;;;4992464;28;20200;-48
2021/04/20 11:15:41;;;;;;;1.88;0.70;;;37.90;62.80;;;;;;4991905;28;20633;-51
2021/04/20 11:18:13;;;;;;;0.75;0.75;;;37.70;62.80;;;;;;4991248;28;20204;-49
2021/04/20 11:20:43;;;;;;;1.00;0.80;;;37.60;63.00;;;;;;4991808;28;20650;-49
2021/04/20 11:23:17;;;;;;;1.10;0.80;;;37.40;63.20;;;;;;4986225;28;20306;-50
2021/04/20 11:25:56;;;;;;;0.95;0.60;;;37.20;63.50;;;;;;4991970;28;20584;-51
2021/04/20 11:28:29;;;;;;;2.65;0.82;;;37.10;63.60;;;;;;4991066;28;20254;-51
2021/04/20 11:31:00;;;;;;;1.15;1.05;;;36.80;63.80;;;;;;4991728;28;20216;-51
2021/04/20 11:33:35;;;;;;;1.00;0.90;;;36.70;63.90;;;;;;4986447;28;20287;-52
2021/04/20 11:36:15;;;;;;;1.45;1.00;;;36.60;64.40;;;;;;4950019;29;20215;-53
2021/04/20 11:38:46;;;;;;;1.30;0.70;;;36.40;64.40;;;;;;4949489;29;20296;-54
2021/04/20 11:41:18;;;;;;;0.70;0.60;;;36.30;64.70;;;;;;4950544;29;20234;-49
2021/04/20 11:43:53;;;;;;;0.90;0.60;;;36.10;65.10;;;;;;4950034;29;20256;-51
2021/04/20 11:46:24;;;;;;;0.85;0.60;;;35.90;65.20;;;;;;4949877;29;20209;-51
2021/04/20 11:48:55;;;;;;;0.80;0.63;;;35.80;65.70;;;;;;4949206;29;20719;-55
2021/04/20 11:51:34;;;;;;;1.30;0.73;;;35.70;66.10;;;;;;4950085;29;20312;-50
2021/04/20 11:54:05;;;;;;;2.28;0.90;;;35.60;66.60;;;;;;4950159;29;20209;-52
2021/04/20 11:56:38;;;;;;;1.75;1.20;;;35.40;66.50;;;;;;4949644;29;20721;-51
2021/04/20 11:59:08;;;;;;;1.88;1.50;;;35.40;67.00;;;;;;4949274;29;20721;-50
2021/04/20 12:01:38;;;;;;;2.30;2.10;;;35.30;67.20;;;;;;4987026;28;21066;-50
2021/04/20 12:04:09;;;;;;;2.10;1.30;;;35.20;67.50;;;;;;4991038;28;20212;-52
2021/04/20 12:06:40;;;;;;;1.10;1.00;;;35.10;67.70;;;;;;4949265;29;20217;-52
2021/04/20 12:09:11;;;;;;;2.45;1.20;;;35.00;67.90;;;;;;4946264;28;20237;-54
2021/04/20 12:11:43;;;;;;;2.00;1.38;;;34.90;68.10;;;;;;4949463;29;20749;-52
2021/04/20 12:14:14;;;;;;;6.43;5.22;;;34.90;68.50;;;;;;4949625;29;20208;-51
2021/04/20 12:16:45;;;;;;;4.38;3.22;;;34.80;68.70;;;;;;4949619;29;20253;-54
2021/04/20 12:19:16;;;;;;;3.20;1.90;;;34.80;69.00;;;;;;4949533;29;20659;-53
2021/04/20 12:21:47;;;;;;;1.45;1.00;;;34.70;69.20;;;;;;4948674;29;20284;-53
2021/04/20 12:24:18;;;;;;;1.23;1.10;;;34.70;69.50;;;;;;4891976;29;20290;-54
2021/04/20 12:26:53;;;;;;;1.80;1.00;;;34.60;69.70;;;;;;4886918;29;20263;-54
2021/04/20 12:29:25;;;;;;;21.13;13.65;;;34.60;70.50;;;;;;4892129;29;20668;-52
2021/04/20 12:31:56;;;;;;;32.50;21.55;;;34.50;70.60;;;;;;4891064;29;20290;-54
2021/04/20 12:34:29;;;;;;;15.93;10.95;;;34.40;70.60;;;;;;4892315;29;20215;-51
2021/04/20 12:37:02;;;;;;;27.05;18.83;;;34.40;71.00;;;;;;4904811;29;20210;-53
2021/04/20 12:39:35;;;;;;;33.28;19.40;;;34.40;71.10;;;;;;4948836;29;20256;-52
2021/04/20 12:42:08;;;;;;;24.98;15.55;;;34.30;71.30;;;;;;4947714;29;20194;-51
2021/04/20 12:44:40;;;;;;;18.60;11.63;;;34.20;71.60;;;;;;4947351;29;20674;-50
2021/04/20 12:47:11;;;;;;;43.63;29.55;;;34.20;71.70;;;;;;4948541;29;20576;-51
2021/04/20 12:49:45;;;;;;;59.90;40.85;;;34.20;72.00;;;;;;4910154;29;20294;-53
2021/04/20 12:52:16;;;;;;;46.08;31.98;;;34.10;72.10;;;;;;4909562;29;20226;-54
2021/04/20 12:54:48;;;;;;;37.28;24.42;;;34.10;72.30;;;;;;4888665;29;20629;-50
2021/04/20 12:57:31;;;;;;;14.93;10.05;;;34.10;72.50;;;;;;4929040;29;20209;-51
2021/04/20 13:00:03;;;;;;;6.50;4.25;;;34.00;72.80;;;;;;4928943;29;20198;-51
2021/04/20 13:02:33;;;;;;;4.38;2.13;;;34.00;72.90;;;;;;4927429;29;20237;-52
2021/04/20 13:05:05;;;;;;;2.08;1.63;;;33.90;73.00;;;;;;4925112;29;20359;-49
2021/04/20 13:07:35;;;;;;;1.75;1.48;;;33.90;73.20;;;;;;4929449;29;20234;-50
2021/04/20 13:10:06;;;;;;;0.90;0.90;;;33.80;73.20;;;;;;4872533;29;20680;-50
2021/04/20 13:12:38;;;;;;;2.08;0.90;;;33.80;73.50;;;;;;4872826;29;20227;-54
2021/04/20 13:15:10;;;;;;;0.90;0.80;;;33.80;74.00;;;;;;4872850;29;20251;-54
2021/04/20 13:17:41;;;;;;;12.13;9.10;;;33.70;74.30;;;;;;4872592;29;20210;-54